sensor_id;sensor_type;location;lat;lon;timestamp;P1;durP1;ratioP1;P2;durP2;ratioP2
11608;SDS011;5860;52.018;8.536;2023-02-28T00:01:29;7.17;;;4.23;;
11608;SDS011;5860;52.018;8.536;2023-02-28T00:03:58;7.57;;;3.83;;
11608;SDS011;5860;52.018;8.536;2023-02-28T00:06:25;4.87;;;3.33;;
11608;SDS011;5860;52.018;8.536;2023-02-28T00:08:52;5.63;;;3.97;;
11608;SDS011;5860;52.018;8.536;2023-02-28T00:11:20;6.77;;;3.97;;
11608;SDS011;5860;52.018;8.536;2023-02-28T00:13:48;7.47;;;4.27;;
11608;SDS011;5860;52.018;8.536;2023-02-28T00:16:17;9.33;;;3.90;;
11608;SDS011;5860;52.018;8.536;2023-02-28T00:18:46;11.23;;;4.17;;
11608;SDS011;5860;52.018;8.536;2023-02-28T00:21:17;5.53;;;3.70;;
11608;SDS011;5860;52.018;8.536;2023-02-28T00:23:45;6.80;;;3.67;;
11608;SDS011;5860;52.018;8.536;2023-02-28T00:26:13;9.13;;;3.83;;
11608;SDS011;5860;52.018;8.536;2023-02-28T00:28:40;7.60;;;3.73;;
11608;SDS011;5860;52.018;8.536;2023-02-28T00:31:07;6.37;;;3.53;;
11608;SDS011;5860;52.018;8.536;2023-02-28T00:33:34;9.67;;;3.30;;
11608;SDS011;5860;52.018;8.536;2023-02-28T00:36:02;5.97;;;3.97;;
11608;SDS011;5860;52.018;8.536;2023-02-28T00:38:30;7.97;;;4.07;;
11608;SDS011;5860;52.018;8.536;2023-02-28T00:40:58;10.93;;;3.77;;
11608;SDS011;5860;52.018;8.536;2023-02-28T00:43:34;6.23;;;3.67;;
11608;SDS011;5860;52.018;8.536;2023-02-28T00:46:03;9.03;;;3.60;;
11608;SDS011;5860;52.018;8.536;2023-02-28T00:48:30;5.77;;;3.30;;
11608;SDS011;5860;52.018;8.536;2023-02-28T00:50:58;5.67;;;3.90;;
11608;SDS011;5860;52.018;8.536;2023-02-28T00:53:25;6.47;;;3.53;;
11608;SDS011;5860;52.018;8.536;2023-02-28T00:55:52;8.10;;;3.57;;
11608;SDS011;5860;52.018;8.536;2023-02-28T00:58:19;5.43;;;3.63;;
11608;SDS011;5860;52.018;8.536;2023-02-28T01:00:46;5.70;;;3.80;;
11608;SDS011;5860;52.018;8.536;2023-02-28T01:03:16;6.33;;;3.70;;
11608;SDS011;5860;52.018;8.536;2023-02-28T01:05:44;10.53;;;4.47;;
11608;SDS011;5860;52.018;8.536;2023-02-28T01:08:12;6.43;;;4.03;;
11608;SDS011;5860;52.018;8.536;2023-02-28T01:10:40;8.90;;;5.40;;
11608;SDS011;5860;52.018;8.536;2023-02-28T01:13:07;9.27;;;5.17;;
11608;SDS011;5860;52.018;8.536;2023-02-28T01:15:34;9.00;;;5.93;;
11608;SDS011;5860;52.018;8.536;2023-02-28T01:18:01;10.40;;;5.17;;
11608;SDS011;5860;52.018;8.536;2023-02-28T01:20:28;7.83;;;5.00;;
11608;SDS011;5860;52.018;8.536;2023-02-28T01:22:55;10.67;;;5.33;;
11608;SDS011;5860;52.018;8.536;2023-02-28T01:25:22;8.40;;;5.30;;
11608;SDS011;5860;52.018;8.536;2023-02-28T01:27:49;11.97;;;6.10;;
11608;SDS011;5860;52.018;8.536;2023-02-28T01:30:16;7.10;;;5.00;;
11608;SDS011;5860;52.018;8.536;2023-02-28T01:32:43;10.00;;;5.20;;
11608;SDS011;5860;52.018;8.536;2023-02-28T01:35:10;7.80;;;5.07;;
11608;SDS011;5860;52.018;8.536;2023-02-28T01:37:37;10.03;;;5.43;;
11608;SDS011;5860;52.018;8.536;2023-02-28T01:40:04;9.40;;;5.20;;
11608;SDS011;5860;52.018;8.536;2023-02-28T01:42:31;10.40;;;5.17;;
11608;SDS011;5860;52.018;8.536;2023-02-28T01:47:58;9.97;;;4.77;;
11608;SDS011;5860;52.018;8.536;2023-02-28T01:50:28;7.30;;;4.90;;
11608;SDS011;5860;52.018;8.536;2023-02-28T01:53:01;9.33;;;4.70;;
11608;SDS011;5860;52.018;8.536;2023-02-28T01:55:32;9.17;;;5.07;;
11608;SDS011;5860;52.018;8.536;2023-02-28T01:58:01;10.90;;;5.47;;
11608;SDS011;5860;52.018;8.536;2023-02-28T02:00:31;9.57;;;6.13;;
11608;SDS011;5860;52.018;8.536;2023-02-28T02:02:59;7.07;;;4.77;;
11608;SDS011;5860;52.018;8.536;2023-02-28T02:05:34;10.97;;;6.40;;
11608;SDS011;5860;52.018;8.536;2023-02-28T02:08:05;10.83;;;5.73;;
11608;SDS011;5860;52.018;8.536;2023-02-28T02:10:39;10.73;;;5.60;;
11608;SDS011;5860;52.018;8.536;2023-02-28T02:29:41;9.83;;;6.10;;
11608;SDS011;5860;52.018;8.536;2023-02-28T02:35:31;9.40;;;5.90;;
11608;SDS011;5860;52.018;8.536;2023-02-28T02:38:12;10.67;;;6.57;;
11608;SDS011;5860;52.018;8.536;2023-02-28T02:44:34;8.90;;;5.40;;
11608;SDS011;5860;52.018;8.536;2023-02-28T02:46:45;9.00;;;4.97;;
11608;SDS011;5860;52.018;8.536;2023-02-28T02:49:15;10.53;;;4.77;;
11608;SDS011;5860;52.018;8.536;2023-02-28T02:51:46;6.63;;;4.37;;
11608;SDS011;5860;52.018;8.536;2023-02-28T02:54:15;10.40;;;4.10;;
11608;SDS011;5860;52.018;8.536;2023-02-28T02:56:47;7.20;;;4.70;;
11608;SDS011;5860;52.018;8.536;2023-02-28T02:59:19;7.63;;;4.33;;
11608;SDS011;5860;52.018;8.536;2023-02-28T03:01:48;8.93;;;4.63;;
11608;SDS011;5860;52.018;8.536;2023-02-28T03:04:20;8.40;;;4.83;;
11608;SDS011;5860;52.018;8.536;2023-02-28T03:06:50;7.37;;;4.60;;
11608;SDS011;5860;52.018;8.536;2023-02-28T03:09:21;6.20;;;4.20;;
11608;SDS011;5860;52.018;8.536;2023-02-28T03:11:49;6.90;;;4.30;;
11608;SDS011;5860;52.018;8.536;2023-02-28T03:20:15;7.37;;;4.63;;
11608;SDS011;5860;52.018;8.536;2023-02-28T03:25:46;8.00;;;4.73;;
11608;SDS011;5860;52.018;8.536;2023-02-28T03:31:27;5.70;;;4.20;;
11608;SDS011;5860;52.018;8.536;2023-02-28T03:34:01;7.27;;;5.03;;
11608;SDS011;5860;52.018;8.536;2023-02-28T03:36:41;6.30;;;4.13;;
11608;SDS011;5860;52.018;8.536;2023-02-28T03:39:17;7.13;;;4.00;;
11608;SDS011;5860;52.018;8.536;2023-02-28T03:42:25;6.83;;;4.00;;
11608;SDS011;5860;52.018;8.536;2023-02-28T03:44:55;9.97;;;5.13;;
11608;SDS011;5860;52.018;8.536;2023-02-28T03:47:32;10.57;;;4.83;;
11608;SDS011;5860;52.018;8.536;2023-02-28T03:50:27;5.60;;;4.30;;
11608;SDS011;5860;52.018;8.536;2023-02-28T03:55:42;6.47;;;4.20;;
11608;SDS011;5860;52.018;8.536;2023-02-28T04:00:50;6.47;;;4.47;;
11608;SDS011;5860;52.018;8.536;2023-02-28T04:03:23;7.40;;;4.77;;
11608;SDS011;5860;52.018;8.536;2023-02-28T04:05:51;6.83;;;4.53;;
11608;SDS011;5860;52.018;8.536;2023-02-28T04:08:20;7.43;;;4.50;;
11608;SDS011;5860;52.018;8.536;2023-02-28T04:10:50;8.13;;;5.03;;
11608;SDS011;5860;52.018;8.536;2023-02-28T04:13:28;7.33;;;4.83;;
11608;SDS011;5860;52.018;8.536;2023-02-28T04:15:54;5.53;;;4.20;;
11608;SDS011;5860;52.018;8.536;2023-02-28T04:18:22;6.57;;;4.63;;
11608;SDS011;5860;52.018;8.536;2023-02-28T04:20:48;8.40;;;4.50;;
11608;SDS011;5860;52.018;8.536;2023-02-28T04:23:15;7.40;;;5.00;;
11608;SDS011;5860;52.018;8.536;2023-02-28T04:25:42;8.03;;;4.77;;
11608;SDS011;5860;52.018;8.536;2023-02-28T04:28:09;9.00;;;5.13;;
11608;SDS011;5860;52.018;8.536;2023-02-28T04:30:37;6.47;;;4.87;;
11608;SDS011;5860;52.018;8.536;2023-02-28T04:33:05;8.10;;;5.00;;
11608;SDS011;5860;52.018;8.536;2023-02-28T04:35:31;6.93;;;5.20;;
11608;SDS011;5860;52.018;8.536;2023-02-28T04:37:58;7.20;;;4.70;;
11608;SDS011;5860;52.018;8.536;2023-02-28T04:40:25;7.23;;;4.90;;
11608;SDS011;5860;52.018;8.536;2023-02-28T04:42:52;8.10;;;4.57;;
11608;SDS011;5860;52.018;8.536;2023-02-28T04:45:19;9.80;;;5.10;;
11608;SDS011;5860;52.018;8.536;2023-02-28T04:47:46;5.73;;;4.23;;
11608;SDS011;5860;52.018;8.536;2023-02-28T04:50:13;6.20;;;4.23;;
11608;SDS011;5860;52.018;8.536;2023-02-28T04:52:40;8.27;;;4.60;;
11608;SDS011;5860;52.018;8.536;2023-02-28T04:55:07;6.17;;;4.13;;
11608;SDS011;5860;52.018;8.536;2023-02-28T04:57:34;7.60;;;5.00;;
11608;SDS011;5860;52.018;8.536;2023-02-28T05:00:01;7.37;;;5.07;;
11608;SDS011;5860;52.018;8.536;2023-02-28T05:02:31;6.17;;;4.47;;
11608;SDS011;5860;52.018;8.536;2023-02-28T05:05:01;8.13;;;4.77;;
11608;SDS011;5860;52.018;8.536;2023-02-28T05:07:28;7.73;;;4.83;;
11608;SDS011;5860;52.018;8.536;2023-02-28T05:09:55;8.47;;;4.90;;
11608;SDS011;5860;52.018;8.536;2023-02-28T05:12:22;8.53;;;4.73;;
11608;SDS011;5860;52.018;8.536;2023-02-28T05:14:49;8.63;;;4.83;;
11608;SDS011;5860;52.018;8.536;2023-02-28T05:17:15;8.47;;;4.77;;
11608;SDS011;5860;52.018;8.536;2023-02-28T05:19:43;8.00;;;4.97;;
11608;SDS011;5860;52.018;8.536;2023-02-28T05:22:13;8.40;;;4.77;;
11608;SDS011;5860;52.018;8.536;2023-02-28T05:24:43;7.37;;;5.00;;
11608;SDS011;5860;52.018;8.536;2023-02-28T05:27:10;6.17;;;4.90;;
11608;SDS011;5860;52.018;8.536;2023-02-28T05:29:37;5.53;;;4.40;;
11608;SDS011;5860;52.018;8.536;2023-02-28T05:32:09;7.20;;;4.43;;
11608;SDS011;5860;52.018;8.536;2023-02-28T05:34:38;7.13;;;4.73;;
11608;SDS011;5860;52.018;8.536;2023-02-28T05:37:06;8.33;;;4.87;;
11608;SDS011;5860;52.018;8.536;2023-02-28T05:39:38;6.97;;;4.80;;
11608;SDS011;5860;52.018;8.536;2023-02-28T05:42:05;6.57;;;4.60;;
11608;SDS011;5860;52.018;8.536;2023-02-28T05:44:33;10.40;;;5.37;;
11608;SDS011;5860;52.018;8.536;2023-02-28T05:47:00;8.70;;;4.80;;
11608;SDS011;5860;52.018;8.536;2023-02-28T05:49:27;7.53;;;4.80;;
11608;SDS011;5860;52.018;8.536;2023-02-28T05:51:53;5.27;;;4.10;;
11608;SDS011;5860;52.018;8.536;2023-02-28T05:54:20;6.97;;;4.23;;
11608;SDS011;5860;52.018;8.536;2023-02-28T05:56:47;5.73;;;4.13;;
11608;SDS011;5860;52.018;8.536;2023-02-28T05:59:14;6.90;;;4.13;;
11608;SDS011;5860;52.018;8.536;2023-02-28T06:01:42;8.73;;;4.20;;
11608;SDS011;5860;52.018;8.536;2023-02-28T06:04:15;9.00;;;4.50;;
11608;SDS011;5860;52.018;8.536;2023-02-28T06:06:57;9.50;;;4.70;;
11608;SDS011;5860;52.018;8.536;2023-02-28T06:09:24;9.63;;;5.20;;
11608;SDS011;5860;52.018;8.536;2023-02-28T06:11:51;7.90;;;5.50;;
11608;SDS011;5860;52.018;8.536;2023-02-28T06:14:18;8.40;;;4.63;;
11608;SDS011;5860;52.018;8.536;2023-02-28T06:16:46;8.70;;;4.23;;
11608;SDS011;5860;52.018;8.536;2023-02-28T06:19:13;8.37;;;5.10;;
11608;SDS011;5860;52.018;8.536;2023-02-28T06:21:41;6.37;;;4.50;;
11608;SDS011;5860;52.018;8.536;2023-02-28T06:24:08;5.93;;;4.17;;
11608;SDS011;5860;52.018;8.536;2023-02-28T06:26:36;7.77;;;5.20;;
11608;SDS011;5860;52.018;8.536;2023-02-28T06:29:03;8.30;;;4.57;;
11608;SDS011;5860;52.018;8.536;2023-02-28T06:31:29;9.03;;;5.03;;
11608;SDS011;5860;52.018;8.536;2023-02-28T06:33:57;7.67;;;5.10;;
11608;SDS011;5860;52.018;8.536;2023-02-28T06:36:24;6.67;;;4.50;;
11608;SDS011;5860;52.018;8.536;2023-02-28T06:38:51;8.87;;;4.90;;
11608;SDS011;5860;52.018;8.536;2023-02-28T06:41:24;7.13;;;4.70;;
11608;SDS011;5860;52.018;8.536;2023-02-28T06:43:53;14.87;;;5.37;;
11608;SDS011;5860;52.018;8.536;2023-02-28T06:46:20;6.77;;;4.83;;
11608;SDS011;5860;52.018;8.536;2023-02-28T06:48:48;7.47;;;5.10;;
11608;SDS011;5860;52.018;8.536;2023-02-28T06:51:19;9.13;;;5.40;;
11608;SDS011;5860;52.018;8.536;2023-02-28T06:53:48;9.17;;;5.73;;
11608;SDS011;5860;52.018;8.536;2023-02-28T06:56:15;8.27;;;5.50;;
11608;SDS011;5860;52.018;8.536;2023-02-28T06:58:47;8.97;;;5.67;;
11608;SDS011;5860;52.018;8.536;2023-02-28T07:01:15;6.17;;;4.60;;
11608;SDS011;5860;52.018;8.536;2023-02-28T07:03:42;8.73;;;5.87;;
11608;SDS011;5860;52.018;8.536;2023-02-28T07:06:09;8.00;;;4.80;;
11608;SDS011;5860;52.018;8.536;2023-02-28T07:08:37;9.77;;;5.43;;
11608;SDS011;5860;52.018;8.536;2023-02-28T07:11:05;8.83;;;5.70;;
11608;SDS011;5860;52.018;8.536;2023-02-28T07:13:32;7.97;;;5.37;;
11608;SDS011;5860;52.018;8.536;2023-02-28T07:16:00;8.77;;;6.03;;
11608;SDS011;5860;52.018;8.536;2023-02-28T07:18:29;10.47;;;6.17;;
11608;SDS011;5860;52.018;8.536;2023-02-28T07:20:57;8.90;;;6.03;;
11608;SDS011;5860;52.018;8.536;2023-02-28T07:23:24;15.13;;;6.97;;
11608;SDS011;5860;52.018;8.536;2023-02-28T07:25:51;9.20;;;6.47;;
11608;SDS011;5860;52.018;8.536;2023-02-28T07:28:18;8.63;;;6.00;;
11608;SDS011;5860;52.018;8.536;2023-02-28T07:30:45;10.90;;;5.90;;
11608;SDS011;5860;52.018;8.536;2023-02-28T07:33:12;13.67;;;6.67;;
11608;SDS011;5860;52.018;8.536;2023-02-28T07:35:39;11.73;;;6.67;;
11608;SDS011;5860;52.018;8.536;2023-02-28T07:38:06;12.20;;;6.90;;
11608;SDS011;5860;52.018;8.536;2023-02-28T07:40:34;9.67;;;6.90;;
11608;SDS011;5860;52.018;8.536;2023-02-28T07:43:02;14.57;;;7.10;;
11608;SDS011;5860;52.018;8.536;2023-02-28T07:45:30;13.87;;;8.03;;
11608;SDS011;5860;52.018;8.536;2023-02-28T07:48:00;9.87;;;6.97;;
11608;SDS011;5860;52.018;8.536;2023-02-28T07:50:28;11.50;;;6.57;;
11608;SDS011;5860;52.018;8.536;2023-02-28T07:52:58;11.73;;;6.70;;
11608;SDS011;5860;52.018;8.536;2023-02-28T07:55:25;14.47;;;6.87;;
11608;SDS011;5860;52.018;8.536;2023-02-28T07:57:53;13.43;;;7.83;;
11608;SDS011;5860;52.018;8.536;2023-02-28T08:00:20;12.87;;;8.03;;
11608;SDS011;5860;52.018;8.536;2023-02-28T08:02:47;12.93;;;7.93;;
11608;SDS011;5860;52.018;8.536;2023-02-28T08:05:15;9.77;;;6.87;;
11608;SDS011;5860;52.018;8.536;2023-02-28T08:07:45;9.37;;;5.57;;
11608;SDS011;5860;52.018;8.536;2023-02-28T08:10:14;10.17;;;5.90;;
11608;SDS011;5860;52.018;8.536;2023-02-28T08:12:41;6.27;;;4.40;;
11608;SDS011;5860;52.018;8.536;2023-02-28T08:15:08;9.13;;;5.23;;
11608;SDS011;5860;52.018;8.536;2023-02-28T08:17:35;6.37;;;4.43;;
11608;SDS011;5860;52.018;8.536;2023-02-28T08:20:02;10.63;;;4.70;;
11608;SDS011;5860;52.018;8.536;2023-02-28T08:22:30;7.47;;;4.33;;
11608;SDS011;5860;52.018;8.536;2023-02-28T08:24:57;10.10;;;5.13;;
11608;SDS011;5860;52.018;8.536;2023-02-28T08:27:24;6.63;;;4.13;;
11608;SDS011;5860;52.018;8.536;2023-02-28T08:29:51;7.60;;;4.07;;
11608;SDS011;5860;52.018;8.536;2023-02-28T08:32:19;11.10;;;4.67;;
11608;SDS011;5860;52.018;8.536;2023-02-28T08:34:55;6.40;;;4.10;;
11608;SDS011;5860;52.018;8.536;2023-02-28T08:37:23;6.93;;;4.90;;
11608;SDS011;5860;52.018;8.536;2023-02-28T08:39:50;5.30;;;3.60;;
11608;SDS011;5860;52.018;8.536;2023-02-28T08:42:21;7.30;;;3.47;;
11608;SDS011;5860;52.018;8.536;2023-02-28T08:44:49;5.47;;;3.60;;
11608;SDS011;5860;52.018;8.536;2023-02-28T08:47:16;5.13;;;3.33;;
11608;SDS011;5860;52.018;8.536;2023-02-28T08:49:43;6.63;;;3.63;;
11608;SDS011;5860;52.018;8.536;2023-02-28T08:52:10;4.50;;;3.50;;
11608;SDS011;5860;52.018;8.536;2023-02-28T08:54:37;5.47;;;3.13;;
11608;SDS011;5860;52.018;8.536;2023-02-28T08:57:04;4.77;;;3.37;;
11608;SDS011;5860;52.018;8.536;2023-02-28T08:59:31;7.80;;;3.67;;
11608;SDS011;5860;52.018;8.536;2023-02-28T09:01:58;6.40;;;3.43;;
11608;SDS011;5860;52.018;8.536;2023-02-28T09:04:26;5.40;;;3.27;;
11608;SDS011;5860;52.018;8.536;2023-02-28T09:06:53;9.40;;;4.00;;
11608;SDS011;5860;52.018;8.536;2023-02-28T09:09:21;5.90;;;3.60;;
11608;SDS011;5860;52.018;8.536;2023-02-28T09:11:48;7.23;;;3.47;;
11608;SDS011;5860;52.018;8.536;2023-02-28T09:14:16;4.23;;;3.30;;
11608;SDS011;5860;52.018;8.536;2023-02-28T09:16:44;4.13;;;2.87;;
11608;SDS011;5860;52.018;8.536;2023-02-28T09:19:12;5.77;;;3.50;;
11608;SDS011;5860;52.018;8.536;2023-02-28T09:21:41;4.57;;;2.90;;
11608;SDS011;5860;52.018;8.536;2023-02-28T09:24:08;5.73;;;3.03;;
11608;SDS011;5860;52.018;8.536;2023-02-28T09:26:38;5.20;;;2.57;;
11608;SDS011;5860;52.018;8.536;2023-02-28T09:29:21;3.57;;;2.47;;
11608;SDS011;5860;52.018;8.536;2023-02-28T09:31:48;6.90;;;2.73;;
11608;SDS011;5860;52.018;8.536;2023-02-28T09:34:16;5.83;;;3.00;;
11608;SDS011;5860;52.018;8.536;2023-02-28T09:36:44;4.13;;;2.40;;
11608;SDS011;5860;52.018;8.536;2023-02-28T09:39:14;4.10;;;2.47;;
11608;SDS011;5860;52.018;8.536;2023-02-28T09:41:43;5.80;;;2.13;;
11608;SDS011;5860;52.018;8.536;2023-02-28T09:46:54;3.57;;;2.23;;
11608;SDS011;5860;52.018;8.536;2023-02-28T09:49:39;3.63;;;2.33;;
11608;SDS011;5860;52.018;8.536;2023-02-28T09:52:11;4.93;;;2.20;;
11608;SDS011;5860;52.018;8.536;2023-02-28T09:54:42;5.33;;;2.63;;
11608;SDS011;5860;52.018;8.536;2023-02-28T09:57:31;5.40;;;2.83;;
11608;SDS011;5860;52.018;8.536;2023-02-28T10:05:26;9.73;;;2.50;;
11608;SDS011;5860;52.018;8.536;2023-02-28T10:08:14;4.13;;;2.00;;
11608;SDS011;5860;52.018;8.536;2023-02-28T10:10:57;3.77;;;1.97;;
11608;SDS011;5860;52.018;8.536;2023-02-28T10:16:26;4.50;;;2.33;;
11608;SDS011;5860;52.018;8.536;2023-02-28T10:19:02;3.50;;;1.93;;
11608;SDS011;5860;52.018;8.536;2023-02-28T10:21:41;3.50;;;1.70;;
11608;SDS011;5860;52.018;8.536;2023-02-28T10:27:15;2.90;;;1.63;;
11608;SDS011;5860;52.018;8.536;2023-02-28T10:29:49;2.33;;;1.57;;
11608;SDS011;5860;52.018;8.536;2023-02-28T10:32:31;5.27;;;1.70;;
11608;SDS011;5860;52.018;8.536;2023-02-28T10:35:01;2.53;;;1.33;;
11608;SDS011;5860;52.018;8.536;2023-02-28T10:37:37;5.83;;;1.50;;
11608;SDS011;5860;52.018;8.536;2023-02-28T10:40:06;2.23;;;1.27;;
11608;SDS011;5860;52.018;8.536;2023-02-28T10:42:58;6.13;;;1.20;;
11608;SDS011;5860;52.018;8.536;2023-02-28T10:45:26;4.27;;;2.30;;
11608;SDS011;5860;52.018;8.536;2023-02-28T10:47:57;2.53;;;1.30;;
11608;SDS011;5860;52.018;8.536;2023-02-28T11:01:12;1.50;;;0.80;;
11608;SDS011;5860;52.018;8.536;2023-02-28T11:03:46;1.53;;;1.03;;
11608;SDS011;5860;52.018;8.536;2023-02-28T11:06:23;3.30;;;1.20;;
11608;SDS011;5860;52.018;8.536;2023-02-28T11:08:56;2.07;;;1.10;;
11608;SDS011;5860;52.018;8.536;2023-02-28T11:11:27;3.90;;;1.60;;
11608;SDS011;5860;52.018;8.536;2023-02-28T11:14:02;2.03;;;1.10;;
11608;SDS011;5860;52.018;8.536;2023-02-28T11:16:32;2.97;;;1.20;;
11608;SDS011;5860;52.018;8.536;2023-02-28T11:19:02;1.43;;;0.97;;
11608;SDS011;5860;52.018;8.536;2023-02-28T11:21:33;1.10;;;1.00;;
11608;SDS011;5860;52.018;8.536;2023-02-28T11:24:15;1.60;;;1.10;;
11608;SDS011;5860;52.018;8.536;2023-02-28T11:26:49;1.80;;;1.00;;
11608;SDS011;5860;52.018;8.536;2023-02-28T11:29:30;2.13;;;0.93;;
11608;SDS011;5860;52.018;8.536;2023-02-28T11:34:31;3.23;;;1.00;;
11608;SDS011;5860;52.018;8.536;2023-02-28T11:36:59;1.37;;;0.90;;
11608;SDS011;5860;52.018;8.536;2023-02-28T11:39:31;6.43;;;1.30;;
11608;SDS011;5860;52.018;8.536;2023-02-28T11:42:04;2.37;;;1.00;;
11608;SDS011;5860;52.018;8.536;2023-02-28T11:47:48;1.80;;;1.03;;
11608;SDS011;5860;52.018;8.536;2023-02-28T11:59:29;2.83;;;1.60;;
11608;SDS011;5860;52.018;8.536;2023-02-28T12:05:42;1.87;;;1.30;;
11608;SDS011;5860;52.018;8.536;2023-02-28T12:11:12;1.93;;;1.40;;
11608;SDS011;5860;52.018;8.536;2023-02-28T12:18:56;2.77;;;1.67;;
11608;SDS011;5860;52.018;8.536;2023-02-28T12:21:43;2.80;;;1.30;;
11608;SDS011;5860;52.018;8.536;2023-02-28T12:24:40;2.20;;;1.40;;
11608;SDS011;5860;52.018;8.536;2023-02-28T12:27:26;2.20;;;1.10;;
11608;SDS011;5860;52.018;8.536;2023-02-28T12:35:12;1.90;;;1.30;;
11608;SDS011;5860;52.018;8.536;2023-02-28T12:37:51;3.87;;;1.80;;
11608;SDS011;5860;52.018;8.536;2023-02-28T12:41:13;2.17;;;1.30;;
11608;SDS011;5860;52.018;8.536;2023-02-28T12:43:29;2.67;;;1.17;;
11608;SDS011;5860;52.018;8.536;2023-02-28T12:46:43;3.20;;;1.33;;
11608;SDS011;5860;52.018;8.536;2023-02-28T12:48:56;3.90;;;1.37;;
11608;SDS011;5860;52.018;8.536;2023-02-28T12:51:25;3.93;;;1.80;;
11608;SDS011;5860;52.018;8.536;2023-02-28T12:59:20;6.13;;;1.63;;
11608;SDS011;5860;52.018;8.536;2023-02-28T13:02:02;2.57;;;1.60;;
11608;SDS011;5860;52.018;8.536;2023-02-28T13:10:04;2.40;;;1.70;;
11608;SDS011;5860;52.018;8.536;2023-02-28T13:12:34;2.80;;;1.57;;
11608;SDS011;5860;52.018;8.536;2023-02-28T13:15:07;2.13;;;1.70;;
11608;SDS011;5860;52.018;8.536;2023-02-28T13:17:51;3.33;;;1.40;;
11608;SDS011;5860;52.018;8.536;2023-02-28T13:20:20;2.50;;;1.50;;
11608;SDS011;5860;52.018;8.536;2023-02-28T13:22:51;2.47;;;1.40;;
11608;SDS011;5860;52.018;8.536;2023-02-28T13:27:49;3.43;;;1.67;;
11608;SDS011;5860;52.018;8.536;2023-02-28T13:38:37;3.20;;;1.40;;
11608;SDS011;5860;52.018;8.536;2023-02-28T13:44:05;3.13;;;1.70;;
11608;SDS011;5860;52.018;8.536;2023-02-28T13:46:36;2.83;;;1.70;;
11608;SDS011;5860;52.018;8.536;2023-02-28T14:05:25;1.93;;;1.40;;
11608;SDS011;5860;52.018;8.536;2023-02-28T14:07:57;2.77;;;1.57;;
11608;SDS011;5860;52.018;8.536;2023-02-28T14:15:34;2.83;;;1.90;;
11608;SDS011;5860;52.018;8.536;2023-02-28T14:18:28;3.83;;;1.60;;
11608;SDS011;5860;52.018;8.536;2023-02-28T14:21:16;3.67;;;1.83;;
11608;SDS011;5860;52.018;8.536;2023-02-28T14:35:22;3.13;;;1.60;;
11608;SDS011;5860;52.018;8.536;2023-02-28T14:38:21;2.37;;;1.80;;
11608;SDS011;5860;52.018;8.536;2023-02-28T14:40:52;2.97;;;1.70;;
11608;SDS011;5860;52.018;8.536;2023-02-28T14:43:22;2.53;;;1.70;;
11608;SDS011;5860;52.018;8.536;2023-02-28T14:45:52;3.20;;;1.63;;
11608;SDS011;5860;52.018;8.536;2023-02-28T14:48:23;2.57;;;1.90;;
11608;SDS011;5860;52.018;8.536;2023-02-28T14:50:58;5.07;;;2.10;;
11608;SDS011;5860;52.018;8.536;2023-02-28T14:53:28;3.43;;;1.73;;
11608;SDS011;5860;52.018;8.536;2023-02-28T14:56:01;3.53;;;1.87;;
11608;SDS011;5860;52.018;8.536;2023-02-28T14:58:29;2.87;;;1.90;;
11608;SDS011;5860;52.018;8.536;2023-02-28T15:00:59;3.07;;;1.63;;
11608;SDS011;5860;52.018;8.536;2023-02-28T15:03:35;4.60;;;1.70;;
11608;SDS011;5860;52.018;8.536;2023-02-28T15:06:15;3.60;;;1.70;;
11608;SDS011;5860;52.018;8.536;2023-02-28T15:08:44;2.33;;;1.80;;
11608;SDS011;5860;52.018;8.536;2023-02-28T15:11:13;3.53;;;1.80;;
11608;SDS011;5860;52.018;8.536;2023-02-28T15:13:52;2.73;;;1.40;;
11608;SDS011;5860;52.018;8.536;2023-02-28T15:16:25;3.13;;;1.90;;
11608;SDS011;5860;52.018;8.536;2023-02-28T15:21:33;2.93;;;1.73;;
11608;SDS011;5860;52.018;8.536;2023-02-28T15:24:04;1.50;;;1.40;;
11608;SDS011;5860;52.018;8.536;2023-02-28T15:26:41;2.23;;;1.27;;
11608;SDS011;5860;52.018;8.536;2023-02-28T15:29:13;3.73;;;1.70;;
11608;SDS011;5860;52.018;8.536;2023-02-28T15:31:44;1.93;;;1.73;;
11608;SDS011;5860;52.018;8.536;2023-02-28T15:37:26;2.67;;;1.60;;
11608;SDS011;5860;52.018;8.536;2023-02-28T15:40:05;4.13;;;2.10;;
11608;SDS011;5860;52.018;8.536;2023-02-28T15:45:36;2.70;;;2.00;;
11608;SDS011;5860;52.018;8.536;2023-02-28T15:48:34;2.60;;;1.90;;
11608;SDS011;5860;52.018;8.536;2023-02-28T15:54:00;2.80;;;1.97;;
11608;SDS011;5860;52.018;8.536;2023-02-28T15:56:32;9.53;;;2.27;;
11608;SDS011;5860;52.018;8.536;2023-02-28T15:59:06;2.67;;;2.03;;
11608;SDS011;5860;52.018;8.536;2023-02-28T16:01:37;3.13;;;2.30;;
11608;SDS011;5860;52.018;8.536;2023-02-28T16:04:11;2.73;;;2.00;;
11608;SDS011;5860;52.018;8.536;2023-02-28T16:06:41;4.40;;;2.30;;
11608;SDS011;5860;52.018;8.536;2023-02-28T16:09:10;3.10;;;2.00;;
11608;SDS011;5860;52.018;8.536;2023-02-28T16:11:45;4.37;;;2.13;;
11608;SDS011;5860;52.018;8.536;2023-02-28T16:14:18;6.57;;;2.07;;
11608;SDS011;5860;52.018;8.536;2023-02-28T16:16:51;3.30;;;1.97;;
11608;SDS011;5860;52.018;8.536;2023-02-28T16:19:22;1.93;;;1.60;;
11608;SDS011;5860;52.018;8.536;2023-02-28T16:21:49;3.60;;;2.27;;
11608;SDS011;5860;52.018;8.536;2023-02-28T16:24:17;3.67;;;2.03;;
11608;SDS011;5860;52.018;8.536;2023-02-28T16:26:46;3.03;;;1.90;;
11608;SDS011;5860;52.018;8.536;2023-02-28T16:29:27;5.20;;;2.50;;
11608;SDS011;5860;52.018;8.536;2023-02-28T16:32:00;3.53;;;2.07;;
11608;SDS011;5860;52.018;8.536;2023-02-28T16:34:30;3.27;;;1.80;;
11608;SDS011;5860;52.018;8.536;2023-02-28T16:36:57;2.53;;;1.73;;
11608;SDS011;5860;52.018;8.536;2023-02-28T16:39:24;4.43;;;2.00;;
11608;SDS011;5860;52.018;8.536;2023-02-28T16:41:51;4.83;;;2.23;;
11608;SDS011;5860;52.018;8.536;2023-02-28T16:44:28;2.83;;;2.03;;
11608;SDS011;5860;52.018;8.536;2023-02-28T16:46:56;3.90;;;2.10;;
11608;SDS011;5860;52.018;8.536;2023-02-28T16:49:23;6.30;;;2.43;;
11608;SDS011;5860;52.018;8.536;2023-02-28T16:51:50;4.43;;;2.30;;
11608;SDS011;5860;52.018;8.536;2023-02-28T16:54:17;3.50;;;2.10;;
11608;SDS011;5860;52.018;8.536;2023-02-28T16:56:45;10.13;;;2.33;;
11608;SDS011;5860;52.018;8.536;2023-02-28T16:59:21;2.80;;;2.13;;
11608;SDS011;5860;52.018;8.536;2023-02-28T17:01:50;3.50;;;2.23;;
11608;SDS011;5860;52.018;8.536;2023-02-28T17:04:18;4.83;;;2.47;;
11608;SDS011;5860;52.018;8.536;2023-02-28T17:06:45;4.43;;;2.57;;
11608;SDS011;5860;52.018;8.536;2023-02-28T17:09:19;6.80;;;2.70;;
11608;SDS011;5860;52.018;8.536;2023-02-28T17:11:55;4.20;;;2.80;;
11608;SDS011;5860;52.018;8.536;2023-02-28T17:14:22;5.60;;;3.00;;
11608;SDS011;5860;52.018;8.536;2023-02-28T17:16:49;5.13;;;2.97;;
11608;SDS011;5860;52.018;8.536;2023-02-28T17:19:16;4.17;;;2.93;;
11608;SDS011;5860;52.018;8.536;2023-02-28T17:21:43;6.23;;;3.60;;
11608;SDS011;5860;52.018;8.536;2023-02-28T17:24:11;4.47;;;2.90;;
11608;SDS011;5860;52.018;8.536;2023-02-28T17:26:44;5.23;;;3.27;;
11608;SDS011;5860;52.018;8.536;2023-02-28T17:29:18;5.47;;;3.30;;
11608;SDS011;5860;52.018;8.536;2023-02-28T17:31:47;6.97;;;3.37;;
11608;SDS011;5860;52.018;8.536;2023-02-28T17:34:14;5.23;;;2.97;;
11608;SDS011;5860;52.018;8.536;2023-02-28T17:36:46;3.67;;;2.70;;
11608;SDS011;5860;52.018;8.536;2023-02-28T17:39:14;3.83;;;3.03;;
11608;SDS011;5860;52.018;8.536;2023-02-28T17:41:50;3.60;;;2.43;;
11608;SDS011;5860;52.018;8.536;2023-02-28T17:44:18;4.73;;;3.00;;
11608;SDS011;5860;52.018;8.536;2023-02-28T17:46:46;3.70;;;2.70;;
11608;SDS011;5860;52.018;8.536;2023-02-28T17:49:14;6.93;;;3.13;;
11608;SDS011;5860;52.018;8.536;2023-02-28T17:51:41;7.10;;;3.30;;
11608;SDS011;5860;52.018;8.536;2023-02-28T17:54:08;4.57;;;3.10;;
11608;SDS011;5860;52.018;8.536;2023-02-28T17:56:36;4.50;;;2.63;;
11608;SDS011;5860;52.018;8.536;2023-02-28T17:59:03;6.03;;;3.50;;
11608;SDS011;5860;52.018;8.536;2023-02-28T18:01:30;5.03;;;3.43;;
11608;SDS011;5860;52.018;8.536;2023-02-28T18:03:58;6.13;;;3.83;;
11608;SDS011;5860;52.018;8.536;2023-02-28T18:06:25;6.40;;;3.97;;
11608;SDS011;5860;52.018;8.536;2023-02-28T18:09:13;10.17;;;4.73;;
11608;SDS011;5860;52.018;8.536;2023-02-28T18:11:43;7.47;;;3.70;;